HAF212 LGEL-LGSA
Flight info
| Callsign | HAF212 |
|---|---|
| Flight time | N/A |
| Altitude | 4500 |
| Route | DIRECT FLIGHT |
| Aircraft | CL41/L-GPS/C |
Departure
| Time | 2026-04-16 09:23 |
|---|---|
| Airport | Elefsis Air Base (LGEL) |
Arrival
| Time | N/A |
|---|---|
| Airport | Chania International Airport (LGSA) |
| Time | Latitude | Longitude | Altitude | Speed | Heading |
|---|---|---|---|---|---|
| 2026-04-16 09:22 | 37.97711 | 23.56668 | 1503 ft | 159 kts | 169° |
| 2026-04-16 09:23 | 37.97004 | 23.56826 | 1512 ft | 155 kts | 163° |
| 2026-04-16 09:23 | 37.95967 | 23.57107 | 1572 ft | 153 kts | 164° |
| 2026-04-16 09:24 | 37.94945 | 23.57457 | 1627 ft | 152 kts | 160° |
| 2026-04-16 09:24 | 37.93947 | 23.57862 | 1764 ft | 146 kts | 158° |
| 2026-04-16 09:24 | 37.93011 | 23.58277 | 2023 ft | 138 kts | 156° |
| 2026-04-16 09:24 | 37.92107 | 23.58559 | 2278 ft | 134 kts | 163° |
| 2026-04-16 09:25 | 37.91196 | 23.58832 | 2459 ft | 134 kts | 160° |
| 2026-04-16 09:25 | 37.90305 | 23.59135 | 2637 ft | 132 kts | 162° |
| 2026-04-16 09:25 | 37.89413 | 23.59370 | 2819 ft | 132 kts | 161° |
| 2026-04-16 09:25 | 37.88498 | 23.59734 | 3006 ft | 140 kts | 153° |
| 2026-04-16 09:26 | 37.87585 | 23.60109 | 3356 ft | 138 kts | 160° |
| 2026-04-16 09:26 | 37.86682 | 23.60211 | 3859 ft | 124 kts | 170° |
| 2026-04-16 09:26 | 37.85863 | 23.60429 | 4149 ft | 119 kts | 147° |
| 2026-04-16 09:26 | 37.85102 | 23.61075 | 4014 ft | 145 kts | 130° |
| 2026-04-16 09:27 | 37.84492 | 23.61953 | 4392 ft | 126 kts | 133° |
| 2026-04-16 09:27 | 37.83628 | 23.62211 | 4482 ft | 152 kts | 181° |
| 2026-04-16 09:27 | 37.82419 | 23.62040 | 3907 ft | 190 kts | 184° |
| 2026-04-16 09:27 | 37.81140 | 23.61844 | 3941 ft | 180 kts | 178° |
| 2026-04-16 09:28 | 37.79958 | 23.61948 | 4084 ft | 166 kts | 165° |
| 2026-04-16 09:28 | 37.78835 | 23.62243 | 4127 ft | 163 kts | 164° |
| 2026-04-16 09:28 | 37.77751 | 23.62489 | 4200 ft | 160 kts | 164° |
| 2026-04-16 09:29 | 37.77449 | 23.62557 | 4224 ft | 159 kts | 164° |
| 2026-04-16 09:29 | 37.76371 | 23.62859 | 4184 ft | 162 kts | 160° |
| 2026-04-16 09:29 | 37.75260 | 23.63218 | 4117 ft | 163 kts | 158° |
| 2026-04-16 09:30 | 37.74197 | 23.63679 | 4087 ft | 161 kts | 154° |
| 2026-04-16 09:30 | 37.73121 | 23.64111 | 4049 ft | 162 kts | 160° |
| 2026-04-16 09:30 | 37.72038 | 23.64520 | 3954 ft | 164 kts | 154° |
| 2026-04-16 09:30 | 37.70979 | 23.65078 | 3854 ft | 164 kts | 152° |
| 2026-04-16 09:31 | 37.69874 | 23.65340 | 3880 ft | 165 kts | 168° |
| 2026-04-16 09:31 | 37.68749 | 23.65643 | 3853 ft | 162 kts | 156° |
| 2026-04-16 09:31 | 37.67711 | 23.66125 | 3830 ft | 162 kts | 152° |
| 2026-04-16 09:31 | 37.66667 | 23.66709 | 3745 ft | 163 kts | 147° |
| 2026-04-16 09:32 | 37.65623 | 23.67234 | 3811 ft | 160 kts | 161° |
| 2026-04-16 09:32 | 37.64547 | 23.67533 | 3880 ft | 157 kts | 162° |
| 2026-04-16 09:32 | 37.63456 | 23.67783 | 3842 ft | 162 kts | 166° |
| 2026-04-16 09:32 | 37.62336 | 23.68009 | 3811 ft | 163 kts | 162° |
| 2026-04-16 09:33 | 37.61241 | 23.68362 | 3815 ft | 161 kts | 159° |
| 2026-04-16 09:33 | 37.60153 | 23.68681 | 3815 ft | 161 kts | 162° |
| 2026-04-16 09:33 | 37.59051 | 23.68902 | 3832 ft | 162 kts | 171° |
| 2026-04-16 09:33 | 37.57936 | 23.68917 | 3890 ft | 159 kts | 172° |
| 2026-04-16 09:34 | 37.56831 | 23.68991 | 3889 ft | 160 kts | 169° |
| 2026-04-16 09:34 | 37.55717 | 23.69121 | 3890 ft | 162 kts | 171° |
| 2026-04-16 09:34 | 37.54584 | 23.69157 | 3872 ft | 163 kts | 175° |
| 2026-04-16 09:34 | 37.53458 | 23.69260 | 3863 ft | 161 kts | 165° |
| 2026-04-16 09:35 | 37.52383 | 23.69607 | 3874 ft | 157 kts | 158° |
| 2026-04-16 09:35 | 37.51352 | 23.70019 | 3914 ft | 155 kts | 158° |
| 2026-04-16 09:35 | 37.50310 | 23.70437 | 3871 ft | 159 kts | 155° |
| 2026-04-16 09:35 | 37.49283 | 23.70936 | 3845 ft | 157 kts | 147° |
| 2026-04-16 09:36 | 37.48313 | 23.71535 | 3915 ft | 155 kts | 153° |
| 2026-04-16 09:36 | 37.47269 | 23.71949 | 3882 ft | 160 kts | 158° |
| 2026-04-16 09:36 | 37.46199 | 23.72331 | 3907 ft | 158 kts | 159° |
| 2026-04-16 09:36 | 37.45138 | 23.72689 | 3944 ft | 156 kts | 158° |
| 2026-04-16 09:37 | 37.44129 | 23.73119 | 3969 ft | 157 kts | 154° |
| 2026-04-16 09:37 | 37.43094 | 23.73663 | 3779 ft | 165 kts | 145° |
| 2026-04-16 09:37 | 37.42114 | 23.74292 | 3920 ft | 154 kts | 152° |
| 2026-04-16 09:37 | 37.41113 | 23.74773 | 3931 ft | 154 kts | 152° |
| 2026-04-16 09:38 | 37.40138 | 23.75323 | 3955 ft | 152 kts | 152° |
| 2026-04-16 09:38 | 37.39165 | 23.75824 | 3989 ft | 150 kts | 150° |
| 2026-04-16 09:38 | 37.38222 | 23.76380 | 3980 ft | 150 kts | 148° |
| 2026-04-16 09:38 | 37.37369 | 23.77124 | 3954 ft | 149 kts | 136° |
| 2026-04-16 09:39 | 37.36591 | 23.77978 | 3984 ft | 146 kts | 132° |
| 2026-04-16 09:39 | 37.35777 | 23.78741 | 3983 ft | 149 kts | 146° |
| 2026-04-16 09:39 | 37.34928 | 23.79407 | 4131 ft | 136 kts | 135° |
| 2026-04-16 09:39 | 37.34054 | 23.79770 | 4263 ft | 143 kts | 176° |
| 2026-04-16 09:40 | 37.33029 | 23.79619 | 4181 ft | 154 kts | 179° |
| 2026-04-16 09:40 | 37.31960 | 23.79648 | 4110 ft | 155 kts | 168° |
| 2026-04-16 09:40 | 37.31240 | 23.79738 | 4104 ft | 155 kts | 168° |
| 2026-04-16 09:41 | 37.30732 | 23.79824 | 4101 ft | 153 kts | 163° |
| 2026-04-16 09:41 | 37.29733 | 23.80208 | 4142 ft | 148 kts | 149° |
| 2026-04-16 09:41 | 37.28834 | 23.80754 | 4244 ft | 143 kts | 149° |
| 2026-04-16 09:42 | 37.27928 | 23.81312 | 4241 ft | 147 kts | 152° |
| 2026-04-16 09:42 | 37.26940 | 23.81663 | 4233 ft | 150 kts | 159° |
| 2026-04-16 09:42 | 37.25975 | 23.82031 | 4316 ft | 145 kts | 152° |
| 2026-04-16 09:42 | 37.25061 | 23.82569 | 4310 ft | 144 kts | 147° |
| 2026-04-16 09:43 | 37.24317 | 23.83379 | 4318 ft | 141 kts | 122° |
| 2026-04-16 09:43 | 37.23765 | 23.84345 | 4504 ft | 132 kts | 140° |
| 2026-04-16 09:43 | 37.22829 | 23.84515 | 4451 ft | 152 kts | 191° |
| 2026-04-16 09:43 | 37.21837 | 23.84143 | 4578 ft | 146 kts | 192° |
| 2026-04-16 09:44 | 37.20884 | 23.83824 | 4785 ft | 136 kts | 180° |
| 2026-04-16 09:44 | 37.19890 | 23.83944 | 4573 ft | 148 kts | 155° |
| 2026-04-16 09:44 | 37.19004 | 23.84374 | 4904 ft | 129 kts | 152° |
| 2026-04-16 09:44 | 37.18182 | 23.84853 | 4988 ft | 128 kts | 143° |
| 2026-04-16 09:45 | 37.17814 | 23.85144 | 4983 ft | 133 kts | 144° |